sensor_id;sensor_type;location;lat;lon;timestamp;pressure;altitude;pressure_sealevel;temperature;humidity
11985;BME280;6052;53.246;10.368;2023-04-23T00:00:26;100089.50;;;20.11;78.93
11985;BME280;6052;53.246;10.368;2023-04-23T00:02:56;100082.13;;;20.12;78.85
11985;BME280;6052;53.246;10.368;2023-04-23T00:05:27;100079.41;;;20.12;79.11
11985;BME280;6052;53.246;10.368;2023-04-23T00:07:58;100083.91;;;20.16;78.27
11985;BME280;6052;53.246;10.368;2023-04-23T00:10:28;100090.47;;;19.93;80.97
11985;BME280;6052;53.246;10.368;2023-04-23T00:13:01;100092.22;;;19.89;82.40
11985;BME280;6052;53.246;10.368;2023-04-23T00:15:32;100086.38;;;19.74;82.71
11985;BME280;6052;53.246;10.368;2023-04-23T00:18:01;100088.59;;;19.72;82.74
11985;BME280;6052;53.246;10.368;2023-04-23T00:20:31;100081.25;;;19.72;83.24
11985;BME280;6052;53.246;10.368;2023-04-23T00:23:01;100085.84;;;19.63;83.72
11985;BME280;6052;53.246;10.368;2023-04-23T00:25:31;100081.72;;;19.44;85.70
11985;BME280;6052;53.246;10.368;2023-04-23T00:28:03;100084.06;;;19.59;84.98
11985;BME280;6052;53.246;10.368;2023-04-23T00:30:33;100080.69;;;19.62;85.07
11985;BME280;6052;53.246;10.368;2023-04-23T00:33:03;100085.47;;;19.34;86.08
11985;BME280;6052;53.246;10.368;2023-04-23T00:35:33;100089.38;;;19.64;84.47
11985;BME280;6052;53.246;10.368;2023-04-23T00:38:02;100085.34;;;19.61;85.10
11985;BME280;6052;53.246;10.368;2023-04-23T00:40:32;100083.50;;;19.48;84.85
11985;BME280;6052;53.246;10.368;2023-04-23T00:43:04;100082.44;;;19.58;84.21
11985;BME280;6052;53.246;10.368;2023-04-23T00:45:35;100085.97;;;19.58;83.84
11985;BME280;6052;53.246;10.368;2023-04-23T00:48:04;100089.75;;;19.49;84.43
11985;BME280;6052;53.246;10.368;2023-04-23T00:50:35;100081.06;;;19.69;81.90
11985;BME280;6052;53.246;10.368;2023-04-23T00:53:04;100081.56;;;19.71;82.04
11985;BME280;6052;53.246;10.368;2023-04-23T00:55:34;100077.72;;;19.72;82.58
11985;BME280;6052;53.246;10.368;2023-04-23T00:58:06;100075.63;;;19.69;82.16
11985;BME280;6052;53.246;10.368;2023-04-23T01:00:42;100069.50;;;19.94;79.88
11985;BME280;6052;53.246;10.368;2023-04-23T01:03:19;100065.84;;;20.07;79.73
11985;BME280;6052;53.246;10.368;2023-04-23T01:05:50;100064.69;;;19.99;78.85
11985;BME280;6052;53.246;10.368;2023-04-23T01:08:22;100063.09;;;19.98;79.86
11985;BME280;6052;53.246;10.368;2023-04-23T01:10:53;100073.38;;;20.01;79.38
11985;BME280;6052;53.246;10.368;2023-04-23T01:13:25;100067.63;;;20.03;79.11
11985;BME280;6052;53.246;10.368;2023-04-23T01:15:55;100062.78;;;20.00;79.50
11985;BME280;6052;53.246;10.368;2023-04-23T01:18:25;100066.63;;;19.99;79.45
11985;BME280;6052;53.246;10.368;2023-04-23T01:20:55;100062.59;;;19.88;81.59
11985;BME280;6052;53.246;10.368;2023-04-23T01:23:27;100059.47;;;19.72;82.23
11985;BME280;6052;53.246;10.368;2023-04-23T01:25:57;100060.28;;;19.73;82.92
11985;BME280;6052;53.246;10.368;2023-04-23T01:28:26;100062.63;;;19.66;84.85
11985;BME280;6052;53.246;10.368;2023-04-23T01:30:56;100060.31;;;19.81;82.31
11985;BME280;6052;53.246;10.368;2023-04-23T01:33:30;100066.38;;;19.78;81.38
11985;BME280;6052;53.246;10.368;2023-04-23T01:36:01;100066.03;;;19.49;85.62
11985;BME280;6052;53.246;10.368;2023-04-23T01:38:35;100066.59;;;19.60;84.89
11985;BME280;6052;53.246;10.368;2023-04-23T01:41:06;100075.56;;;19.60;84.51
11985;BME280;6052;53.246;10.368;2023-04-23T01:43:36;100072.81;;;19.60;84.55
11985;BME280;6052;53.246;10.368;2023-04-23T01:46:06;100078.41;;;19.55;85.11
11985;BME280;6052;53.246;10.368;2023-04-23T01:48:36;100072.78;;;19.52;85.06
11985;BME280;6052;53.246;10.368;2023-04-23T01:51:05;100074.47;;;19.39;85.53
11985;BME280;6052;53.246;10.368;2023-04-23T01:53:37;100070.00;;;19.43;86.90
11985;BME280;6052;53.246;10.368;2023-04-23T01:56:07;100062.19;;;19.50;85.03
11985;BME280;6052;53.246;10.368;2023-04-23T01:58:37;100065.13;;;19.32;86.54
11985;BME280;6052;53.246;10.368;2023-04-23T02:01:07;100067.84;;;19.32;85.81
11985;BME280;6052;53.246;10.368;2023-04-23T02:03:37;100069.00;;;19.39;85.54
11985;BME280;6052;53.246;10.368;2023-04-23T02:06:07;100056.34;;;19.35;86.78
11985;BME280;6052;53.246;10.368;2023-04-23T02:08:39;100064.44;;;19.26;87.38
11985;BME280;6052;53.246;10.368;2023-04-23T02:11:09;100064.34;;;19.31;86.56
11985;BME280;6052;53.246;10.368;2023-04-23T02:13:38;100058.63;;;19.41;85.67
11985;BME280;6052;53.246;10.368;2023-04-23T02:16:08;100050.38;;;19.33;86.35
11985;BME280;6052;53.246;10.368;2023-04-23T02:18:39;100052.25;;;19.46;84.06
11985;BME280;6052;53.246;10.368;2023-04-23T02:21:08;100050.59;;;19.36;86.03
11985;BME280;6052;53.246;10.368;2023-04-23T02:23:41;100061.63;;;19.31;86.02
11985;BME280;6052;53.246;10.368;2023-04-23T02:26:10;100061.91;;;19.30;85.92
11985;BME280;6052;53.246;10.368;2023-04-23T02:28:40;100052.38;;;19.41;83.58
11985;BME280;6052;53.246;10.368;2023-04-23T02:31:09;100051.06;;;19.38;84.86
11985;BME280;6052;53.246;10.368;2023-04-23T02:33:39;100058.81;;;19.45;83.39
11985;BME280;6052;53.246;10.368;2023-04-23T02:36:09;100055.16;;;19.49;82.85
11985;BME280;6052;53.246;10.368;2023-04-23T02:38:41;100060.72;;;19.44;83.53
11985;BME280;6052;53.246;10.368;2023-04-23T02:41:11;100052.75;;;19.26;86.01
11985;BME280;6052;53.246;10.368;2023-04-23T02:43:40;100053.63;;;19.35;84.87
11985;BME280;6052;53.246;10.368;2023-04-23T02:46:09;100056.94;;;19.32;84.71
11985;BME280;6052;53.246;10.368;2023-04-23T02:48:40;100056.09;;;19.23;86.85
11985;BME280;6052;53.246;10.368;2023-04-23T02:51:11;100054.41;;;19.13;87.20
11985;BME280;6052;53.246;10.368;2023-04-23T02:53:43;100058.56;;;19.33;85.07
11985;BME280;6052;53.246;10.368;2023-04-23T02:56:12;100058.13;;;19.17;87.05
11985;BME280;6052;53.246;10.368;2023-04-23T02:58:42;100061.53;;;19.23;86.65
11985;BME280;6052;53.246;10.368;2023-04-23T03:01:12;100057.56;;;19.29;85.45
11985;BME280;6052;53.246;10.368;2023-04-23T03:03:41;100058.50;;;19.24;86.83
11985;BME280;6052;53.246;10.368;2023-04-23T03:06:11;100065.06;;;19.23;85.22
11985;BME280;6052;53.246;10.368;2023-04-23T03:08:43;100063.34;;;19.27;86.51
11985;BME280;6052;53.246;10.368;2023-04-23T03:11:12;100061.09;;;19.29;86.37
11985;BME280;6052;53.246;10.368;2023-04-23T03:13:42;100059.97;;;19.30;85.92
11985;BME280;6052;53.246;10.368;2023-04-23T03:16:11;100064.63;;;19.30;85.80
11985;BME280;6052;53.246;10.368;2023-04-23T03:18:41;100065.38;;;19.22;87.57
11985;BME280;6052;53.246;10.368;2023-04-23T03:21:10;100070.81;;;19.22;86.59
11985;BME280;6052;53.246;10.368;2023-04-23T03:23:42;100077.41;;;19.07;89.85
11985;BME280;6052;53.246;10.368;2023-04-23T03:26:12;100078.34;;;18.89;91.26
11985;BME280;6052;53.246;10.368;2023-04-23T03:28:41;100077.13;;;18.19;92.52
11985;BME280;6052;53.246;10.368;2023-04-23T03:31:11;100079.03;;;18.19;94.13
11985;BME280;6052;53.246;10.368;2023-04-23T03:33:41;100092.31;;;18.20;92.63
11985;BME280;6052;53.246;10.368;2023-04-23T03:36:10;100088.69;;;18.38;90.04
11985;BME280;6052;53.246;10.368;2023-04-23T03:38:43;100086.91;;;17.75;91.41
11985;BME280;6052;53.246;10.368;2023-04-23T03:41:13;100091.00;;;18.18;89.69
11985;BME280;6052;53.246;10.368;2023-04-23T03:43:43;100096.72;;;18.03;90.20
11985;BME280;6052;53.246;10.368;2023-04-23T03:46:12;100101.72;;;17.96;90.83
11985;BME280;6052;53.246;10.368;2023-04-23T03:48:42;100104.97;;;17.98;90.46
11985;BME280;6052;53.246;10.368;2023-04-23T03:51:11;100102.72;;;17.73;91.03
11985;BME280;6052;53.246;10.368;2023-04-23T03:53:44;100100.53;;;18.02;88.27
11985;BME280;6052;53.246;10.368;2023-04-23T03:56:13;100108.91;;;18.05;88.58
11985;BME280;6052;53.246;10.368;2023-04-23T03:58:43;100106.28;;;18.00;87.79
11985;BME280;6052;53.246;10.368;2023-04-23T04:01:12;100103.34;;;17.97;87.12
11985;BME280;6052;53.246;10.368;2023-04-23T04:03:42;100116.59;;;17.85;87.16
11985;BME280;6052;53.246;10.368;2023-04-23T04:06:12;100109.81;;;18.14;85.94
11985;BME280;6052;53.246;10.368;2023-04-23T04:08:44;100110.50;;;17.93;86.22
11985;BME280;6052;53.246;10.368;2023-04-23T04:11:14;100120.16;;;17.99;86.13
11985;BME280;6052;53.246;10.368;2023-04-23T04:13:43;100124.56;;;18.08;85.54
11985;BME280;6052;53.246;10.368;2023-04-23T04:16:13;100116.19;;;17.78;86.78
11985;BME280;6052;53.246;10.368;2023-04-23T04:18:42;100118.56;;;17.66;87.74
11985;BME280;6052;53.246;10.368;2023-04-23T04:21:11;100123.03;;;17.75;85.87
11985;BME280;6052;53.246;10.368;2023-04-23T04:23:45;100125.22;;;17.73;87.14
11985;BME280;6052;53.246;10.368;2023-04-23T04:26:14;100125.09;;;17.65;86.19
11985;BME280;6052;53.246;10.368;2023-04-23T04:28:44;100126.69;;;17.66;86.20
11985;BME280;6052;53.246;10.368;2023-04-23T04:31:13;100138.22;;;17.76;85.59
11985;BME280;6052;53.246;10.368;2023-04-23T04:33:46;100134.47;;;17.72;85.85
11985;BME280;6052;53.246;10.368;2023-04-23T04:36:15;100147.84;;;17.69;85.40
11985;BME280;6052;53.246;10.368;2023-04-23T04:38:48;100146.19;;;17.68;85.45
11985;BME280;6052;53.246;10.368;2023-04-23T04:41:17;100150.81;;;17.54;85.71
11985;BME280;6052;53.246;10.368;2023-04-23T04:43:47;100156.41;;;17.76;84.58
11985;BME280;6052;53.246;10.368;2023-04-23T04:46:17;100159.94;;;17.58;85.71
11985;BME280;6052;53.246;10.368;2023-04-23T04:48:47;100162.19;;;17.69;84.28
11985;BME280;6052;53.246;10.368;2023-04-23T04:51:16;100155.72;;;17.52;85.49
11985;BME280;6052;53.246;10.368;2023-04-23T04:53:48;100163.38;;;17.26;86.95
11985;BME280;6052;53.246;10.368;2023-04-23T04:56:18;100165.16;;;17.54;85.21
11985;BME280;6052;53.246;10.368;2023-04-23T04:58:49;100169.34;;;17.47;86.21
11985;BME280;6052;53.246;10.368;2023-04-23T05:01:19;100175.06;;;17.45;86.07
11985;BME280;6052;53.246;10.368;2023-04-23T05:03:50;100183.28;;;17.40;86.15
11985;BME280;6052;53.246;10.368;2023-04-23T05:06:20;100170.47;;;17.46;85.40
11985;BME280;6052;53.246;10.368;2023-04-23T05:08:52;100179.19;;;17.43;86.00
11985;BME280;6052;53.246;10.368;2023-04-23T05:11:21;100189.88;;;17.53;84.72
11985;BME280;6052;53.246;10.368;2023-04-23T05:13:51;100195.31;;;17.53;85.14
11985;BME280;6052;53.246;10.368;2023-04-23T05:16:20;100196.50;;;17.47;85.47
11985;BME280;6052;53.246;10.368;2023-04-23T05:18:50;100195.63;;;17.51;84.70
11985;BME280;6052;53.246;10.368;2023-04-23T05:21:19;100199.59;;;17.59;84.54
11985;BME280;6052;53.246;10.368;2023-04-23T05:23:49;100202.44;;;17.49;84.09
11985;BME280;6052;53.246;10.368;2023-04-23T05:26:21;100204.28;;;17.11;86.17
11985;BME280;6052;53.246;10.368;2023-04-23T05:28:50;100213.94;;;17.59;84.02
11985;BME280;6052;53.246;10.368;2023-04-23T05:31:19;100210.06;;;17.47;84.13
11985;BME280;6052;53.246;10.368;2023-04-23T05:33:49;100210.94;;;17.61;83.66
11985;BME280;6052;53.246;10.368;2023-04-23T05:36:18;100208.94;;;17.29;86.19
11985;BME280;6052;53.246;10.368;2023-04-23T05:38:48;100204.13;;;17.45;84.97
11985;BME280;6052;53.246;10.368;2023-04-23T05:41:20;100202.69;;;17.29;85.58
11985;BME280;6052;53.246;10.368;2023-04-23T05:43:50;100213.19;;;17.17;86.06
11985;BME280;6052;53.246;10.368;2023-04-23T05:46:19;100215.06;;;17.16;86.52
11985;BME280;6052;53.246;10.368;2023-04-23T05:48:49;100217.41;;;17.04;86.58
11985;BME280;6052;53.246;10.368;2023-04-23T05:51:19;100221.81;;;17.19;86.50
11985;BME280;6052;53.246;10.368;2023-04-23T05:53:51;100225.69;;;17.13;85.32
11985;BME280;6052;53.246;10.368;2023-04-23T05:56:24;100226.25;;;17.15;85.12
11985;BME280;6052;53.246;10.368;2023-04-23T05:58:53;100220.94;;;17.05;85.44
11985;BME280;6052;53.246;10.368;2023-04-23T06:01:23;100222.09;;;16.99;85.48
11985;BME280;6052;53.246;10.368;2023-04-23T06:03:53;100226.72;;;16.98;85.19
11985;BME280;6052;53.246;10.368;2023-04-23T06:06:22;100236.81;;;16.93;84.72
11985;BME280;6052;53.246;10.368;2023-04-23T06:08:53;100232.00;;;16.85;85.68
11985;BME280;6052;53.246;10.368;2023-04-23T06:11:25;100237.94;;;17.10;84.20
11985;BME280;6052;53.246;10.368;2023-04-23T06:13:58;100230.63;;;16.87;84.11
11985;BME280;6052;53.246;10.368;2023-04-23T06:16:29;100224.31;;;16.73;84.07
11985;BME280;6052;53.246;10.368;2023-04-23T06:18:59;100231.94;;;17.13;82.06
11985;BME280;6052;53.246;10.368;2023-04-23T06:21:28;100228.69;;;17.11;81.79
11985;BME280;6052;53.246;10.368;2023-04-23T06:23:58;100225.19;;;17.11;81.59
11985;BME280;6052;53.246;10.368;2023-04-23T06:26:30;100227.63;;;16.89;82.25
11985;BME280;6052;53.246;10.368;2023-04-23T06:28:59;100245.75;;;16.93;81.55
11985;BME280;6052;53.246;10.368;2023-04-23T06:31:29;100240.19;;;16.80;81.71
11985;BME280;6052;53.246;10.368;2023-04-23T06:33:58;100238.25;;;16.85;81.18
11985;BME280;6052;53.246;10.368;2023-04-23T06:36:28;100231.44;;;16.88;81.35
11985;BME280;6052;53.246;10.368;2023-04-23T06:38:57;100245.41;;;16.76;81.37
11985;BME280;6052;53.246;10.368;2023-04-23T06:41:32;100239.69;;;16.78;80.34
11985;BME280;6052;53.246;10.368;2023-04-23T06:44:01;100243.91;;;16.65;80.61
11985;BME280;6052;53.246;10.368;2023-04-23T06:46:31;100250.41;;;16.88;78.48
11985;BME280;6052;53.246;10.368;2023-04-23T06:49:01;100246.28;;;16.43;78.60
11985;BME280;6052;53.246;10.368;2023-04-23T06:51:30;100253.09;;;16.69;78.85
11985;BME280;6052;53.246;10.368;2023-04-23T06:54:00;100254.19;;;16.68;78.23
11985;BME280;6052;53.246;10.368;2023-04-23T06:56:32;100254.06;;;16.21;78.86
11985;BME280;6052;53.246;10.368;2023-04-23T06:59:01;100254.34;;;16.20;79.32
11985;BME280;6052;53.246;10.368;2023-04-23T07:01:33;100257.13;;;16.43;78.47
11985;BME280;6052;53.246;10.368;2023-04-23T07:04:03;100255.31;;;16.34;78.91
11985;BME280;6052;53.246;10.368;2023-04-23T07:06:32;100255.38;;;16.57;78.90
11985;BME280;6052;53.246;10.368;2023-04-23T07:09:02;100251.53;;;16.87;77.48
11985;BME280;6052;53.246;10.368;2023-04-23T07:11:35;100250.38;;;16.93;76.95
11985;BME280;6052;53.246;10.368;2023-04-23T07:14:05;100252.16;;;16.79;77.23
11985;BME280;6052;53.246;10.368;2023-04-23T07:16:34;100250.03;;;16.76;78.11
11985;BME280;6052;53.246;10.368;2023-04-23T07:19:04;100256.84;;;16.73;77.91
11985;BME280;6052;53.246;10.368;2023-04-23T07:21:33;100247.94;;;16.91;76.54
11985;BME280;6052;53.246;10.368;2023-04-23T07:24:03;100251.19;;;16.93;76.45
11985;BME280;6052;53.246;10.368;2023-04-23T07:26:35;100249.66;;;16.82;77.20
11985;BME280;6052;53.246;10.368;2023-04-23T07:29:05;100255.22;;;16.96;76.84
11985;BME280;6052;53.246;10.368;2023-04-23T07:31:36;100254.25;;;16.87;77.35
11985;BME280;6052;53.246;10.368;2023-04-23T07:34:07;100251.53;;;16.87;76.35
11985;BME280;6052;53.246;10.368;2023-04-23T07:36:37;100243.03;;;16.70;75.91
11985;BME280;6052;53.246;10.368;2023-04-23T07:39:06;100240.09;;;16.66;76.45
11985;BME280;6052;53.246;10.368;2023-04-23T07:41:39;100228.56;;;16.56;77.10
11985;BME280;6052;53.246;10.368;2023-04-23T07:44:08;100229.41;;;16.51;77.12
11985;BME280;6052;53.246;10.368;2023-04-23T07:46:38;100229.69;;;16.78;76.56
11985;BME280;6052;53.246;10.368;2023-04-23T07:49:07;100225.19;;;16.87;76.06
11985;BME280;6052;53.246;10.368;2023-04-23T07:51:37;100225.69;;;16.71;75.53
11985;BME280;6052;53.246;10.368;2023-04-23T07:54:07;100228.78;;;16.83;75.80
11985;BME280;6052;53.246;10.368;2023-04-23T07:56:39;100229.13;;;16.76;75.23
11985;BME280;6052;53.246;10.368;2023-04-23T07:59:09;100229.25;;;16.66;75.91
11985;BME280;6052;53.246;10.368;2023-04-23T08:01:38;100233.28;;;16.69;75.70
11985;BME280;6052;53.246;10.368;2023-04-23T08:04:07;100233.34;;;16.35;77.85
11985;BME280;6052;53.246;10.368;2023-04-23T08:06:38;100237.31;;;16.71;77.04
11985;BME280;6052;53.246;10.368;2023-04-23T08:09:08;100231.03;;;16.52;77.92
11985;BME280;6052;53.246;10.368;2023-04-23T08:11:40;100223.88;;;16.61;77.49
11985;BME280;6052;53.246;10.368;2023-04-23T08:14:10;100228.81;;;16.59;77.97
11985;BME280;6052;53.246;10.368;2023-04-23T08:16:39;100221.47;;;16.60;79.17
11985;BME280;6052;53.246;10.368;2023-04-23T08:19:09;100220.94;;;16.58;79.27
11985;BME280;6052;53.246;10.368;2023-04-23T08:21:39;100226.38;;;16.81;79.20
11985;BME280;6052;53.246;10.368;2023-04-23T08:24:08;100222.16;;;16.70;79.16
11985;BME280;6052;53.246;10.368;2023-04-23T08:26:41;100224.34;;;16.45;80.65
11985;BME280;6052;53.246;10.368;2023-04-23T08:29:10;100223.72;;;16.76;79.01
11985;BME280;6052;53.246;10.368;2023-04-23T08:31:40;100221.28;;;16.75;78.34
11985;BME280;6052;53.246;10.368;2023-04-23T08:34:09;100218.28;;;16.76;79.39
11985;BME280;6052;53.246;10.368;2023-04-23T08:36:41;100218.88;;;16.73;79.32
11985;BME280;6052;53.246;10.368;2023-04-23T08:39:11;100209.84;;;17.01;77.57
11985;BME280;6052;53.246;10.368;2023-04-23T08:41:46;100218.88;;;16.97;79.05
11985;BME280;6052;53.246;10.368;2023-04-23T08:44:18;100219.03;;;17.05;77.47
11985;BME280;6052;53.246;10.368;2023-04-23T08:46:48;100224.66;;;17.09;76.72
11985;BME280;6052;53.246;10.368;2023-04-23T08:49:18;100223.22;;;17.16;77.29
11985;BME280;6052;53.246;10.368;2023-04-23T08:51:48;100222.22;;;16.89;76.57
11985;BME280;6052;53.246;10.368;2023-04-23T08:54:21;100224.72;;;17.04;76.23
11985;BME280;6052;53.246;10.368;2023-04-23T08:56:56;100227.25;;;17.19;74.75
11985;BME280;6052;53.246;10.368;2023-04-23T08:59:30;100220.03;;;16.91;75.90
11985;BME280;6052;53.246;10.368;2023-04-23T09:02:01;100218.09;;;17.15;74.49
11985;BME280;6052;53.246;10.368;2023-04-23T09:04:36;100216.84;;;17.07;73.01
11985;BME280;6052;53.246;10.368;2023-04-23T09:07:05;100223.97;;;17.22;74.07
11985;BME280;6052;53.246;10.368;2023-04-23T09:09:37;100221.03;;;17.18;74.59
11985;BME280;6052;53.246;10.368;2023-04-23T09:12:10;100224.22;;;17.02;74.89
11985;BME280;6052;53.246;10.368;2023-04-23T09:14:39;100219.56;;;17.26;74.36
11985;BME280;6052;53.246;10.368;2023-04-23T09:17:09;100216.16;;;17.39;75.13
11985;BME280;6052;53.246;10.368;2023-04-23T09:19:38;100219.50;;;17.31;73.70
11985;BME280;6052;53.246;10.368;2023-04-23T09:22:09;100216.16;;;17.39;73.36
11985;BME280;6052;53.246;10.368;2023-04-23T09:24:40;100210.13;;;17.42;72.76
11985;BME280;6052;53.246;10.368;2023-04-23T09:27:18;100204.34;;;17.48;72.82
11985;BME280;6052;53.246;10.368;2023-04-23T09:29:53;100204.25;;;17.72;71.74
11985;BME280;6052;53.246;10.368;2023-04-23T09:32:30;100199.34;;;17.55;71.46
11985;BME280;6052;53.246;10.368;2023-04-23T09:35:04;100198.69;;;17.63;74.68
11985;BME280;6052;53.246;10.368;2023-04-23T09:37:35;100186.56;;;17.74;73.50
11985;BME280;6052;53.246;10.368;2023-04-23T09:40:06;100180.34;;;17.74;71.97
11985;BME280;6052;53.246;10.368;2023-04-23T09:42:39;100181.97;;;17.88;70.84
11985;BME280;6052;53.246;10.368;2023-04-23T09:45:11;100173.50;;;17.76;69.76
11985;BME280;6052;53.246;10.368;2023-04-23T09:47:49;100180.66;;;17.86;70.16
11985;BME280;6052;53.246;10.368;2023-04-23T09:50:19;100186.53;;;17.93;70.28
11985;BME280;6052;53.246;10.368;2023-04-23T09:52:59;100182.09;;;17.97;70.22
11985;BME280;6052;53.246;10.368;2023-04-23T09:55:30;100185.38;;;18.12;70.43
11985;BME280;6052;53.246;10.368;2023-04-23T09:58:04;100184.25;;;18.13;70.17
11985;BME280;6052;53.246;10.368;2023-04-23T10:00:37;100177.31;;;18.21;68.32
11985;BME280;6052;53.246;10.368;2023-04-23T10:03:08;100182.84;;;18.48;72.66
11985;BME280;6052;53.246;10.368;2023-04-23T10:05:39;100192.84;;;18.20;69.74
11985;BME280;6052;53.246;10.368;2023-04-23T10:08:26;100177.66;;;18.19;67.81
11985;BME280;6052;53.246;10.368;2023-04-23T10:10:57;100178.81;;;18.45;68.90
11985;BME280;6052;53.246;10.368;2023-04-23T10:13:48;100168.22;;;18.57;71.13
11985;BME280;6052;53.246;10.368;2023-04-23T10:16:20;100169.84;;;18.45;70.76
11985;BME280;6052;53.246;10.368;2023-04-23T10:18:58;100163.81;;;18.61;72.03
11985;BME280;6052;53.246;10.368;2023-04-23T10:21:30;100158.66;;;18.33;69.63
11985;BME280;6052;53.246;10.368;2023-04-23T10:24:19;100166.13;;;18.68;70.24
11985;BME280;6052;53.246;10.368;2023-04-23T10:26:55;100160.06;;;18.84;72.28
11985;BME280;6052;53.246;10.368;2023-04-23T10:29:32;100162.19;;;18.60;68.84
11985;BME280;6052;53.246;10.368;2023-04-23T10:32:04;100163.41;;;18.68;70.41
11985;BME280;6052;53.246;10.368;2023-04-23T10:34:34;100168.94;;;18.76;70.56
11985;BME280;6052;53.246;10.368;2023-04-23T10:37:05;100162.19;;;18.74;67.27
11985;BME280;6052;53.246;10.368;2023-04-23T10:39:35;100168.81;;;18.95;67.87
11985;BME280;6052;53.246;10.368;2023-04-23T10:42:05;100173.16;;;18.82;69.37
11985;BME280;6052;53.246;10.368;2023-04-23T10:44:38;100164.59;;;18.89;69.00
11985;BME280;6052;53.246;10.368;2023-04-23T10:47:12;100169.91;;;18.94;70.37
11985;BME280;6052;53.246;10.368;2023-04-23T10:49:43;100159.84;;;18.94;69.72
11985;BME280;6052;53.246;10.368;2023-04-23T10:52:14;100162.72;;;19.11;68.18
11985;BME280;6052;53.246;10.368;2023-04-23T10:54:56;100166.50;;;19.02;64.83
11985;BME280;6052;53.246;10.368;2023-04-23T10:57:26;100170.59;;;19.13;63.78
11985;BME280;6052;53.246;10.368;2023-04-23T11:00:01;100157.50;;;19.15;61.75
11985;BME280;6052;53.246;10.368;2023-04-23T11:02:42;100163.94;;;19.32;62.85
11985;BME280;6052;53.246;10.368;2023-04-23T11:05:12;100159.59;;;19.31;61.77
11985;BME280;6052;53.246;10.368;2023-04-23T11:07:41;100146.94;;;19.49;63.58
11985;BME280;6052;53.246;10.368;2023-04-23T11:10:53;100162.31;;;19.31;61.58
11985;BME280;6052;53.246;10.368;2023-04-23T11:13:24;100152.75;;;19.34;62.21
11985;BME280;6052;53.246;10.368;2023-04-23T11:16:15;100150.75;;;19.70;65.04
11985;BME280;6052;53.246;10.368;2023-04-23T11:18:58;100151.25;;;19.72;64.04
11985;BME280;6052;53.246;10.368;2023-04-23T11:21:56;100153.50;;;19.70;63.19
11985;BME280;6052;53.246;10.368;2023-04-23T11:24:27;100150.03;;;19.78;63.00
11985;BME280;6052;53.246;10.368;2023-04-23T11:26:58;100153.19;;;19.71;62.10
11985;BME280;6052;53.246;10.368;2023-04-23T11:29:28;100147.22;;;19.69;61.65
11985;BME280;6052;53.246;10.368;2023-04-23T11:32:00;100137.50;;;19.77;61.89
11985;BME280;6052;53.246;10.368;2023-04-23T11:34:31;100122.28;;;19.76;61.96
11985;BME280;6052;53.246;10.368;2023-04-23T11:37:01;100130.56;;;19.93;62.07
11985;BME280;6052;53.246;10.368;2023-04-23T11:39:31;100127.13;;;19.79;61.50
11985;BME280;6052;53.246;10.368;2023-04-23T11:42:01;100113.09;;;19.94;61.38
11985;BME280;6052;53.246;10.368;2023-04-23T11:44:32;100118.59;;;20.02;63.33
11985;BME280;6052;53.246;10.368;2023-04-23T11:47:06;100112.78;;;20.26;63.33
11985;BME280;6052;53.246;10.368;2023-04-23T11:49:36;100114.44;;;20.05;61.00
11985;BME280;6052;53.246;10.368;2023-04-23T11:52:07;100114.91;;;20.37;61.32
11985;BME280;6052;53.246;10.368;2023-04-23T11:54:39;100119.03;;;20.18;60.08
11985;BME280;6052;53.246;10.368;2023-04-23T11:57:08;100124.22;;;20.06;59.81
11985;BME280;6052;53.246;10.368;2023-04-23T11:59:40;100116.16;;;20.23;59.67
11985;BME280;6052;53.246;10.368;2023-04-23T12:02:12;100112.84;;;20.04;58.28
11985;BME280;6052;53.246;10.368;2023-04-23T12:04:42;100106.31;;;20.13;59.14
11985;BME280;6052;53.246;10.368;2023-04-23T12:07:12;100104.00;;;20.37;59.27
11985;BME280;6052;53.246;10.368;2023-04-23T12:09:56;100099.16;;;20.26;60.09
11985;BME280;6052;53.246;10.368;2023-04-23T12:12:31;100101.94;;;20.34;59.73
11985;BME280;6052;53.246;10.368;2023-04-23T12:15:05;100099.53;;;20.41;58.82
11985;BME280;6052;53.246;10.368;2023-04-23T12:17:38;100094.81;;;20.25;59.42
11985;BME280;6052;53.246;10.368;2023-04-23T12:20:09;100097.41;;;20.30;58.95
11985;BME280;6052;53.246;10.368;2023-04-23T12:22:41;100099.53;;;20.33;59.07
11985;BME280;6052;53.246;10.368;2023-04-23T12:25:11;100101.97;;;20.43;60.79
11985;BME280;6052;53.246;10.368;2023-04-23T12:27:43;100097.97;;;20.49;60.01
11985;BME280;6052;53.246;10.368;2023-04-23T12:30:15;100101.69;;;20.14;58.57
11985;BME280;6052;53.246;10.368;2023-04-23T12:32:47;100098.28;;;20.47;59.44
11985;BME280;6052;53.246;10.368;2023-04-23T12:35:17;100099.56;;;20.50;60.01
11985;BME280;6052;53.246;10.368;2023-04-23T12:37:48;100087.59;;;20.20;57.00
11985;BME280;6052;53.246;10.368;2023-04-23T12:40:18;100095.22;;;20.40;60.05
11985;BME280;6052;53.246;10.368;2023-04-23T12:42:48;100085.88;;;20.33;58.10
11985;BME280;6052;53.246;10.368;2023-04-23T12:45:18;100096.19;;;20.44;59.79
11985;BME280;6052;53.246;10.368;2023-04-23T12:47:50;100078.84;;;20.40;59.79
11985;BME280;6052;53.246;10.368;2023-04-23T12:50:19;100085.81;;;20.72;59.43
11985;BME280;6052;53.246;10.368;2023-04-23T12:52:49;100080.47;;;20.50;56.47
11985;BME280;6052;53.246;10.368;2023-04-23T12:55:19;100076.91;;;20.41;58.40
11985;BME280;6052;53.246;10.368;2023-04-23T12:57:49;100078.47;;;20.25;57.22
11985;BME280;6052;53.246;10.368;2023-04-23T13:00:19;100076.19;;;20.18;56.92
11985;BME280;6052;53.246;10.368;2023-04-23T13:02:53;100079.44;;;20.20;56.28
11985;BME280;6052;53.246;10.368;2023-04-23T13:05:23;100072.84;;;20.21;57.15
11985;BME280;6052;53.246;10.368;2023-04-23T13:07:53;100078.69;;;20.37;57.26
11985;BME280;6052;53.246;10.368;2023-04-23T13:10:22;100072.56;;;20.40;57.53